createdAt,value
2018-12-05T00:00:08.817Z,99.99
2018-12-05T00:01:08.802Z,99.99
2018-12-05T00:02:08.790Z,99.99
2018-12-05T00:03:08.763Z,99.99
2018-12-05T00:04:08.753Z,99.99
2018-12-05T00:05:08.750Z,99.99
2018-12-05T00:06:08.725Z,99.99
2018-12-05T00:07:08.707Z,99.99
2018-12-05T00:08:08.693Z,99.99
2018-12-05T00:09:08.673Z,99.99
2018-12-05T00:10:08.657Z,99.99
2018-12-05T00:11:08.642Z,99.99
2018-12-05T00:12:08.630Z,99.99
2018-12-05T00:13:08.614Z,99.99
2018-12-05T00:14:08.602Z,99.99
2018-12-05T00:15:08.585Z,99.99
2018-12-05T00:16:08.568Z,99.99
2018-12-05T00:17:08.552Z,99.87
2018-12-05T00:18:08.532Z,99.99
2018-12-05T00:19:08.516Z,99.96
2018-12-05T00:20:08.509Z,99.99
2018-12-05T00:21:08.485Z,99.99
2018-12-05T00:22:08.467Z,99.87
2018-12-05T00:23:08.457Z,99.77
2018-12-05T00:24:08.975Z,99.58
2018-12-05T00:25:08.419Z,99.49
2018-12-05T00:26:08.407Z,99.58
2018-12-05T00:27:08.404Z,99.68
2018-12-05T00:28:08.376Z,99.68
2018-12-05T00:29:08.358Z,99.20
2018-12-05T00:30:08.348Z,99.58
2018-12-05T00:31:08.323Z,99.49
2018-12-05T00:32:08.311Z,99.49
2018-12-05T00:33:08.292Z,99.68
2018-12-05T00:34:08.277Z,99.68
2018-12-05T00:35:08.260Z,99.68
2018-12-05T00:36:08.255Z,99.30
2018-12-05T00:37:08.232Z,99.68
2018-12-05T00:38:08.216Z,99.77
2018-12-05T00:39:08.206Z,99.58
2018-12-05T00:40:08.187Z,99.77
2018-12-05T00:41:08.170Z,99.87
2018-12-05T00:42:08.156Z,99.77
2018-12-05T00:43:08.139Z,99.49
2018-12-05T00:44:08.121Z,99.49
2018-12-05T00:45:08.101Z,99.20
2018-12-05T00:46:08.089Z,99.39
2018-12-05T00:47:08.070Z,99.39
2018-12-05T00:48:08.054Z,99.58
2018-12-05T00:49:08.042Z,99.49
2018-12-05T00:50:08.035Z,99.20
2018-12-05T00:51:08.014Z,99.58
2018-12-05T00:52:07.992Z,99.77
2018-12-05T00:53:07.979Z,99.77
2018-12-05T00:54:07.965Z,99.99
2018-12-05T00:55:07.943Z,99.99
2018-12-05T00:56:07.933Z,99.99
2018-12-05T00:57:07.911Z,99.99
2018-12-05T00:58:07.899Z,99.99
2018-12-05T00:59:07.881Z,99.99
2018-12-05T01:00:07.866Z,99.99
2018-12-05T01:01:07.854Z,99.99
2018-12-05T01:02:07.839Z,99.68
2018-12-05T01:03:07.822Z,99.99
2018-12-05T01:04:07.813Z,99.99
2018-12-05T01:05:07.946Z,99.87
2018-12-05T01:06:07.769Z,99.77
2018-12-05T01:07:07.753Z,99.77
2018-12-05T01:08:07.771Z,99.68
2018-12-05T01:09:07.727Z,99.20
2018-12-05T01:10:07.710Z,99.30
2018-12-05T01:11:07.692Z,99.53
2018-12-05T01:12:07.679Z,99.99
2018-12-05T01:13:07.658Z,99.99
2018-12-05T01:14:07.651Z,99.77
2018-12-05T01:15:07.633Z,99.99
2018-12-05T01:16:07.617Z,99.99
2018-12-05T01:17:07.599Z,99.99
2018-12-05T01:18:07.585Z,99.99
2018-12-05T01:19:07.595Z,99.87
2018-12-05T01:20:07.546Z,99.99
2018-12-05T01:21:07.533Z,99.99
2018-12-05T01:22:07.520Z,99.99
2018-12-05T01:23:07.502Z,99.96
2018-12-05T01:24:07.484Z,99.68
2018-12-05T01:25:07.470Z,99.96
2018-12-05T01:26:07.452Z,99.58
2018-12-05T01:27:07.439Z,99.49
2018-12-05T01:28:07.420Z,99.11
2018-12-05T01:29:07.408Z,99.68
2018-12-05T01:30:07.392Z,99.58
2018-12-05T01:31:07.405Z,99.49
2018-12-05T01:32:07.358Z,99.30
2018-12-05T01:33:07.341Z,98.54
2018-12-05T01:34:07.325Z,99.01
2018-12-05T01:35:07.310Z,98.82
2018-12-05T01:36:07.296Z,98.54
2018-12-05T01:37:07.282Z,98.35
2018-12-05T01:38:07.265Z,97.88
2018-12-05T01:39:07.249Z,98.63
2018-12-05T01:40:07.235Z,98.25
2018-12-05T01:41:07.217Z,98.07
2018-12-05T01:42:07.200Z,97.50
2018-12-05T01:43:07.190Z,97.88
2018-12-05T01:44:07.170Z,97.69
2018-12-05T01:45:07.156Z,97.50
2018-12-05T01:46:07.138Z,97.31
2018-12-05T01:47:07.123Z,97.40
2018-12-05T01:48:07.109Z,97.40
2018-12-05T01:49:07.089Z,97.78
2018-12-05T01:50:07.072Z,97.31
2018-12-05T01:51:07.063Z,97.31
2018-12-05T01:52:07.036Z,96.92
2018-12-05T01:53:07.031Z,96.92
2018-12-05T01:54:07.013Z,97.12
2018-12-05T01:55:06.991Z,97.26
2018-12-05T01:56:06.980Z,96.73
2018-12-05T01:57:06.960Z,96.64
2018-12-05T01:58:06.949Z,96.88
2018-12-05T01:59:06.937Z,96.69
2018-12-05T02:00:06.936Z,96.50
2018-12-05T02:01:06.899Z,96.78
2018-12-05T02:02:06.892Z,96.69
2018-12-05T02:03:06.869Z,96.03
2018-12-05T02:04:06.850Z,96.31
2018-12-05T02:05:06.835Z,96.31
2018-12-05T02:06:06.818Z,96.31
2018-12-05T02:07:06.802Z,96.22
2018-12-05T02:08:06.786Z,96.31
2018-12-05T02:09:06.779Z,96.31
2018-12-05T02:10:06.764Z,96.31
2018-12-05T02:11:06.737Z,96.22
2018-12-05T02:12:06.725Z,96.50
2018-12-05T02:13:06.711Z,95.74
2018-12-05T02:14:06.693Z,95.65
2018-12-05T02:15:06.676Z,96.22
2018-12-05T02:16:06.663Z,96.31
2018-12-05T02:17:06.647Z,96.97
2018-12-05T02:18:06.635Z,96.78
2018-12-05T02:19:06.615Z,96.78
2018-12-05T02:20:06.600Z,96.78
2018-12-05T02:21:06.579Z,96.88
2018-12-05T02:22:06.564Z,96.88
2018-12-05T02:23:06.547Z,96.88
2018-12-05T02:24:06.530Z,96.12
2018-12-05T02:25:06.515Z,96.03
2018-12-05T02:26:06.501Z,96.69
2018-12-05T02:27:06.487Z,96.88
2018-12-05T02:28:06.472Z,97.16
2018-12-05T02:29:06.454Z,96.97
2018-12-05T02:30:06.431Z,96.88
2018-12-05T02:31:06.419Z,96.03
2018-12-05T02:32:06.406Z,96.03
2018-12-05T02:33:06.388Z,96.31
2018-12-05T02:34:06.382Z,96.31
2018-12-05T02:35:06.355Z,96.22
2018-12-05T02:36:06.345Z,96.41
2018-12-05T02:37:06.328Z,96.22
2018-12-05T02:38:06.311Z,95.93
2018-12-05T02:39:06.291Z,96.03
2018-12-05T02:40:06.275Z,95.65
2018-12-05T02:41:06.261Z,95.74
2018-12-05T02:42:06.239Z,95.93
2018-12-05T02:43:06.232Z,96.12
2018-12-05T02:44:06.216Z,95.65
2018-12-05T02:45:06.196Z,95.55
2018-12-05T02:46:06.185Z,95.36
2018-12-05T02:47:06.164Z,95.55
2018-12-05T02:48:06.146Z,95.45
2018-12-05T02:49:06.134Z,95.36
2018-12-05T02:50:06.116Z,95.65
2018-12-05T02:51:06.097Z,95.65
2018-12-05T02:52:06.085Z,95.26
2018-12-05T02:53:06.066Z,95.26
2018-12-05T02:54:06.051Z,95.45
2018-12-05T02:55:06.035Z,95.45
2018-12-05T02:56:06.021Z,95.26
2018-12-05T02:57:05.999Z,95.65
2018-12-05T02:58:05.995Z,95.55
2018-12-05T02:59:05.971Z,94.79
2018-12-05T03:00:05.954Z,94.79
2018-12-05T03:01:05.943Z,94.51
2018-12-05T03:02:05.927Z,94.51
2018-12-05T03:03:05.910Z,94.51
2018-12-05T03:04:05.891Z,94.23
2018-12-05T03:05:05.884Z,94.13
2018-12-05T03:06:05.871Z,94.23
2018-12-05T03:07:05.844Z,94.51
2018-12-05T03:08:05.829Z,94.70
2018-12-05T03:09:05.807Z,94.79
2018-12-05T03:10:05.799Z,94.79
2018-12-05T03:11:05.786Z,94.51
2018-12-05T03:12:05.764Z,94.70
2018-12-05T03:13:05.754Z,94.79
2018-12-05T03:14:05.742Z,94.79
2018-12-05T03:15:05.791Z,94.70
2018-12-05T03:16:05.700Z,94.79
2018-12-05T03:17:05.680Z,94.51
2018-12-05T03:18:05.666Z,94.60
2018-12-05T03:19:05.651Z,94.51
2018-12-05T03:20:05.635Z,94.23
2018-12-05T03:21:05.620Z,94.04
2018-12-05T03:22:05.604Z,93.84
2018-12-05T03:23:05.585Z,93.80
2018-12-05T03:24:05.567Z,93.75
2018-12-05T03:25:05.557Z,94.04
2018-12-05T03:26:05.540Z,94.23
2018-12-05T03:27:05.516Z,93.70
2018-12-05T03:28:05.511Z,93.65
2018-12-05T03:29:06.811Z,93.61
2018-12-05T03:30:05.491Z,93.80
2018-12-05T03:31:05.459Z,93.70
2018-12-05T03:32:05.441Z,93.42
2018-12-05T03:33:05.421Z,93.23
2018-12-05T03:34:05.406Z,92.85
2018-12-05T03:35:05.401Z,92.94
2018-12-05T03:36:05.372Z,93.04
2018-12-05T03:37:05.374Z,93.70
2018-12-05T03:38:05.347Z,93.89
2018-12-05T03:39:05.331Z,93.99
2018-12-05T03:40:05.308Z,93.89
2018-12-05T03:41:05.303Z,93.32
2018-12-05T03:42:05.293Z,93.13
2018-12-05T03:43:05.260Z,93.42
2018-12-05T03:44:05.246Z,93.32
2018-12-05T03:45:05.230Z,93.23
2018-12-05T03:46:05.218Z,93.32
2018-12-05T03:47:05.201Z,93.70
2018-12-05T03:48:05.182Z,93.32
2018-12-05T03:49:05.165Z,93.80
2018-12-05T03:50:05.150Z,93.61
2018-12-05T03:51:05.130Z,93.70
2018-12-05T03:52:05.113Z,93.61
2018-12-05T03:53:05.094Z,93.61
2018-12-05T03:54:05.076Z,93.80
2018-12-05T03:55:05.067Z,93.61
2018-12-05T03:56:05.050Z,93.42
2018-12-05T03:57:05.033Z,93.42
2018-12-05T03:58:05.016Z,93.80
2018-12-05T03:59:05.007Z,93.70
2018-12-05T04:00:04.984Z,93.51
2018-12-05T04:01:04.968Z,93.13
2018-12-05T04:02:04.949Z,93.23
2018-12-05T04:03:04.933Z,93.23
2018-12-05T04:04:04.919Z,93.13
2018-12-05T04:05:04.913Z,93.13
2018-12-05T04:06:04.888Z,93.23
2018-12-05T04:07:04.868Z,93.32
2018-12-05T04:08:04.858Z,92.28
2018-12-05T04:09:04.835Z,92.47
2018-12-05T04:10:04.821Z,92.47
2018-12-05T04:11:04.808Z,92.76
2018-12-05T04:12:04.783Z,92.76
2018-12-05T04:13:04.769Z,92.94
2018-12-05T04:14:04.752Z,92.85
2018-12-05T04:15:04.737Z,92.66
2018-12-05T04:16:04.715Z,92.19
2018-12-05T04:17:04.714Z,91.90
2018-12-05T04:18:04.683Z,91.62
2018-12-05T04:19:04.677Z,92.09
2018-12-05T04:20:04.656Z,92.28
2018-12-05T04:21:04.641Z,92.19
2018-12-05T04:22:04.619Z,92.38
2018-12-05T04:23:04.603Z,92.76
2018-12-05T04:24:04.591Z,93.23
2018-12-05T04:25:04.568Z,93.13
2018-12-05T04:26:04.558Z,93.23
2018-12-05T04:27:04.535Z,93.23
2018-12-05T04:28:04.529Z,93.04
2018-12-05T04:29:04.513Z,93.13
2018-12-05T04:30:04.494Z,93.70
2018-12-05T04:31:04.472Z,93.61
2018-12-05T04:32:04.457Z,93.99
2018-12-05T04:33:04.446Z,93.89
2018-12-05T04:34:04.423Z,93.70
2018-12-05T04:35:04.405Z,94.27
2018-12-05T04:36:04.529Z,94.46
2018-12-05T04:37:04.378Z,94.37
2018-12-05T04:38:04.361Z,94.56
2018-12-05T04:39:04.347Z,95.12
2018-12-05T04:40:04.324Z,95.60
2018-12-05T04:41:04.312Z,95.60
2018-12-05T04:42:04.292Z,95.60
2018-12-05T04:43:04.277Z,94.74
2018-12-05T04:44:04.265Z,94.84
2018-12-05T04:45:04.242Z,94.56
2018-12-05T04:46:04.230Z,94.74
2018-12-05T04:47:04.216Z,94.84
2018-12-05T04:48:04.190Z,94.65
2018-12-05T04:49:04.175Z,95.69
2018-12-05T04:50:04.163Z,95.22
2018-12-05T04:51:04.144Z,95.41
2018-12-05T04:52:04.126Z,95.41
2018-12-05T04:53:04.108Z,95.41
2018-12-05T04:54:04.094Z,94.84
2018-12-05T04:55:04.078Z,94.37
2018-12-05T04:56:04.061Z,94.37
2018-12-05T04:57:04.044Z,94.46
2018-12-05T04:58:04.028Z,94.56
2018-12-05T04:59:04.012Z,94.93
2018-12-05T05:00:03.996Z,94.84
2018-12-05T05:01:03.981Z,95.50
2018-12-05T05:02:03.958Z,95.31
2018-12-05T05:03:03.948Z,95.03
2018-12-05T05:04:03.923Z,95.98
2018-12-05T05:05:03.907Z,95.41
2018-12-05T05:06:03.891Z,94.65
2018-12-05T05:07:03.894Z,94.74
2018-12-05T05:08:03.860Z,94.56
2018-12-05T05:09:03.842Z,94.37
2018-12-05T05:10:03.820Z,94.27
2018-12-05T05:11:03.814Z,93.70
2018-12-05T05:12:03.792Z,94.37
2018-12-05T05:13:03.797Z,94.46
2018-12-05T05:14:03.766Z,94.37
2018-12-05T05:15:03.752Z,94.56
2018-12-05T05:16:03.732Z,94.08
2018-12-05T05:17:03.713Z,94.37
2018-12-05T05:18:03.695Z,94.56
2018-12-05T05:19:03.674Z,94.74
2018-12-05T05:20:03.659Z,94.46
2018-12-05T05:21:03.645Z,94.84
2018-12-05T05:22:03.623Z,94.65
2018-12-05T05:23:03.608Z,94.65
2018-12-05T05:24:03.594Z,94.93
2018-12-05T05:25:03.586Z,94.37
2018-12-05T05:26:03.557Z,94.65
2018-12-05T05:27:03.544Z,94.56
2018-12-05T05:28:03.528Z,94.74
2018-12-05T05:29:03.514Z,94.74
2018-12-05T05:30:03.495Z,94.74
2018-12-05T05:31:03.475Z,94.56
2018-12-05T05:32:03.460Z,95.12
2018-12-05T05:33:03.447Z,95.12
2018-12-05T05:34:03.431Z,95.03
2018-12-05T05:35:03.410Z,95.60
2018-12-05T05:36:03.402Z,95.41
2018-12-05T05:37:03.376Z,95.60
2018-12-05T05:38:03.365Z,95.41
2018-12-05T05:39:03.347Z,95.12
2018-12-05T05:40:03.323Z,95.79
2018-12-05T05:41:03.312Z,95.60
2018-12-05T05:42:03.297Z,95.69
2018-12-05T05:43:03.278Z,95.22
2018-12-05T05:44:03.262Z,95.60
2018-12-05T05:45:03.248Z,95.41
2018-12-05T05:46:03.232Z,95.41
2018-12-05T05:47:03.223Z,95.60
2018-12-05T05:48:03.199Z,95.60
2018-12-05T05:49:03.181Z,95.60
2018-12-05T05:50:03.164Z,95.60
2018-12-05T05:51:03.149Z,95.69
2018-12-05T05:52:03.130Z,94.65
2018-12-05T05:53:03.116Z,95.41
2018-12-05T05:54:03.100Z,95.12
2018-12-05T05:55:03.081Z,94.65
2018-12-05T05:56:03.067Z,94.93
2018-12-05T05:57:03.054Z,94.46
2018-12-05T05:58:03.029Z,94.93
2018-12-05T05:59:03.013Z,95.03
2018-12-05T06:00:03.002Z,95.03
2018-12-05T06:01:02.981Z,94.56
2018-12-05T06:02:02.968Z,94.89
2018-12-05T06:03:02.949Z,94.84
2018-12-05T06:04:02.938Z,94.84
2018-12-05T06:05:02.920Z,94.46
2018-12-05T06:06:02.899Z,94.37
2018-12-05T06:07:02.886Z,94.32
2018-12-05T06:08:02.864Z,94.37
2018-12-05T06:09:02.853Z,94.51
2018-12-05T06:10:02.841Z,94.37
2018-12-05T06:11:02.811Z,94.37
2018-12-05T06:12:02.795Z,94.18
2018-12-05T06:13:02.786Z,94.93
2018-12-05T06:14:02.770Z,94.37
2018-12-05T06:15:02.760Z,93.89
2018-12-05T06:16:02.742Z,93.99
2018-12-05T06:17:02.716Z,93.61
2018-12-05T06:18:02.736Z,93.51
2018-12-05T06:19:02.689Z,93.99
2018-12-05T06:20:02.669Z,93.99
2018-12-05T06:21:02.652Z,94.65
2018-12-05T06:22:02.650Z,94.46
2018-12-05T06:23:02.620Z,94.46
2018-12-05T06:24:02.601Z,93.70
2018-12-05T06:25:02.586Z,93.80
2018-12-05T06:26:02.573Z,93.99
2018-12-05T06:27:02.558Z,93.89
2018-12-05T06:28:02.543Z,94.27
2018-12-05T06:29:02.522Z,94.18
2018-12-05T06:30:02.508Z,94.65
2018-12-05T06:31:02.491Z,94.42
2018-12-05T06:32:02.479Z,95.07
2018-12-05T06:33:02.459Z,94.74
2018-12-05T06:34:02.446Z,94.65
2018-12-05T06:35:02.420Z,95.60
2018-12-05T06:36:02.406Z,95.45
2018-12-05T06:37:02.392Z,95.26
2018-12-05T06:38:02.379Z,95.45
2018-12-05T06:39:02.363Z,95.26
2018-12-05T06:40:02.348Z,95.31
2018-12-05T06:41:02.331Z,95.60
2018-12-05T06:42:02.312Z,95.55
2018-12-05T06:43:02.298Z,95.22
2018-12-05T06:44:02.278Z,95.36
2018-12-05T06:45:02.257Z,94.65
2018-12-05T06:46:02.244Z,94.32
2018-12-05T06:47:02.236Z,93.61
2018-12-05T06:48:02.290Z,93.37
2018-12-05T06:49:02.197Z,93.80
2018-12-05T06:50:02.181Z,93.42
2018-12-05T06:51:02.168Z,93.89
2018-12-05T06:52:02.140Z,94.18
2018-12-05T06:53:02.131Z,93.84
2018-12-05T06:54:02.112Z,94.04
2018-12-05T06:55:02.151Z,93.80
2018-12-05T06:56:02.089Z,93.94
2018-12-05T06:57:02.069Z,93.80
2018-12-05T06:58:02.055Z,93.65
2018-12-05T06:59:02.036Z,94.60
2018-12-05T07:00:02.016Z,94.04
2018-12-05T07:01:02.002Z,94.51
2018-12-05T07:02:01.985Z,94.89
2018-12-05T07:03:01.980Z,94.60
2018-12-05T07:04:01.951Z,94.98
2018-12-05T07:05:01.936Z,94.79
2018-12-05T07:06:01.922Z,94.51
2018-12-05T07:07:01.908Z,94.89
2018-12-05T07:08:01.882Z,94.51
2018-12-05T07:09:01.877Z,94.70
2018-12-05T07:10:01.855Z,94.79
2018-12-05T07:11:01.854Z,94.70
2018-12-05T07:12:01.829Z,94.79
2018-12-05T07:13:01.806Z,94.79
2018-12-05T07:14:01.793Z,94.89
2018-12-05T07:15:01.777Z,94.51
2018-12-05T07:16:01.755Z,94.98
2018-12-05T07:17:01.743Z,95.07
2018-12-05T07:18:01.734Z,94.79
2018-12-05T07:19:01.708Z,94.98
2018-12-05T07:20:01.691Z,94.51
2018-12-05T07:21:01.676Z,94.70
2018-12-05T07:22:01.655Z,94.70
2018-12-05T07:23:01.644Z,94.32
2018-12-05T07:24:01.630Z,94.51
2018-12-05T07:25:01.612Z,93.94
2018-12-05T07:26:01.588Z,94.13
2018-12-05T07:27:01.579Z,94.23
2018-12-05T07:28:01.560Z,93.94
2018-12-05T07:29:01.545Z,93.94
2018-12-05T07:30:01.525Z,94.51
2018-12-05T07:31:01.512Z,93.84
2018-12-05T07:32:01.501Z,94.04
2018-12-05T07:33:01.481Z,93.65
2018-12-05T07:34:01.462Z,94.13
2018-12-05T07:35:01.451Z,94.32
2018-12-05T07:36:01.438Z,94.70
2018-12-05T07:37:01.416Z,94.79
2018-12-05T07:38:01.402Z,94.89
2018-12-05T07:39:01.378Z,95.07
2018-12-05T07:40:01.366Z,94.89
2018-12-05T07:41:01.347Z,95.17
2018-12-05T07:42:01.330Z,95.07
2018-12-05T07:43:01.311Z,95.07
2018-12-05T07:44:01.296Z,94.89
2018-12-05T07:45:01.285Z,94.70
2018-12-05T07:46:01.265Z,95.17
2018-12-05T07:47:01.255Z,94.89
2018-12-05T07:48:01.233Z,95.55
2018-12-05T07:49:01.214Z,95.65
2018-12-05T07:50:01.206Z,96.03
2018-12-05T07:51:01.188Z,96.03
2018-12-05T07:52:01.174Z,96.59
2018-12-05T07:53:01.156Z,96.97
2018-12-05T07:54:01.136Z,96.97
2018-12-05T07:55:01.119Z,97.26
2018-12-05T07:56:01.112Z,97.35
2018-12-05T07:57:01.083Z,96.69
2018-12-05T07:58:01.158Z,96.50
2018-12-05T07:59:01.054Z,96.97
2018-12-05T08:00:01.041Z,97.54
2018-12-05T08:01:01.026Z,97.45
2018-12-05T08:02:01.008Z,96.59
2018-12-05T08:03:01.822Z,96.03
2018-12-05T08:04:00.971Z,96.03
2018-12-05T08:05:00.955Z,96.22
2018-12-05T08:06:00.939Z,95.55
2018-12-05T08:07:00.925Z,95.74
2018-12-05T08:08:00.910Z,96.31
2018-12-05T08:09:00.887Z,96.41
2018-12-05T08:10:00.875Z,96.22
2018-12-05T08:11:00.860Z,96.36
2018-12-05T08:12:00.842Z,96.73
2018-12-05T08:13:00.828Z,97.21
2018-12-05T08:14:00.813Z,97.68
2018-12-05T08:15:00.788Z,97.87
2018-12-05T08:16:00.780Z,97.97
2018-12-05T08:17:00.760Z,97.59
2018-12-05T08:18:00.748Z,97.59
2018-12-05T08:19:00.735Z,97.59
2018-12-05T08:20:00.714Z,97.40
2018-12-05T08:21:00.695Z,97.11
2018-12-05T08:22:00.681Z,96.73
2018-12-05T08:23:00.659Z,96.55
2018-12-05T08:24:00.645Z,96.73
2018-12-05T08:25:00.637Z,96.36
2018-12-05T08:26:00.613Z,96.45
2018-12-05T08:27:00.598Z,97.45
2018-12-05T08:28:00.595Z,98.21
2018-12-05T08:29:00.565Z,98.11
2018-12-05T08:30:00.555Z,98.11
2018-12-05T08:31:00.524Z,98.39
2018-12-05T08:32:00.516Z,98.21
2018-12-05T08:33:00.498Z,98.30
2018-12-05T08:34:00.480Z,98.49
2018-12-05T08:35:00.466Z,98.68
2018-12-05T08:36:00.449Z,97.64
2018-12-05T08:37:00.427Z,97.92
2018-12-05T08:38:00.588Z,98.02
2018-12-05T08:39:00.400Z,98.02
2018-12-05T08:40:00.381Z,97.64
2018-12-05T08:41:00.364Z,96.59
2018-12-05T08:42:00.347Z,96.78
2018-12-05T08:43:00.330Z,96.88
2018-12-05T08:44:00.318Z,96.12
2018-12-05T08:45:00.298Z,96.69
2018-12-05T08:46:00.280Z,97.07
2018-12-05T08:47:00.275Z,96.12
2018-12-05T08:48:00.250Z,96.31
2018-12-05T08:49:00.258Z,95.74
2018-12-05T08:50:00.211Z,95.17
2018-12-05T08:51:00.199Z,95.07
2018-12-05T08:52:00.192Z,95.17
2018-12-05T08:53:00.173Z,95.07
2018-12-05T08:54:00.153Z,95.45
2018-12-05T08:55:00.133Z,95.45
2018-12-05T08:56:00.125Z,95.84
2018-12-05T08:57:00.103Z,96.03
2018-12-05T08:58:00.091Z,95.65
2018-12-05T08:59:00.072Z,96.08
2018-12-05T09:00:00.056Z,95.79
2018-12-05T09:01:00.052Z,96.17
2018-12-05T09:02:00.026Z,96.36
2018-12-05T09:03:00.005Z,96.26
2018-12-05T09:03:59.991Z,95.88
2018-12-05T09:04:59.979Z,95.69
2018-12-05T09:05:59.957Z,95.60
2018-12-05T09:06:59.945Z,95.31
2018-12-05T09:07:59.920Z,95.31
2018-12-05T09:08:59.910Z,95.50
2018-12-05T09:09:59.894Z,95.98
2018-12-05T09:10:59.870Z,95.98
2018-12-05T09:11:59.864Z,95.79
2018-12-05T09:12:59.929Z,95.69
2018-12-05T09:13:59.844Z,95.50
2018-12-05T09:14:59.809Z,96.26
2018-12-05T09:15:59.803Z,96.36
2018-12-05T09:16:59.781Z,96.64
2018-12-05T09:17:59.767Z,96.92
2018-12-05T09:18:59.743Z,97.12
2018-12-05T09:19:59.733Z,97.12
2018-12-05T09:20:59.714Z,96.92
2018-12-05T09:21:59.695Z,96.92
2018-12-05T09:22:59.697Z,96.55
2018-12-05T09:23:59.667Z,96.83
2018-12-05T09:24:59.644Z,96.83
2018-12-05T09:25:59.634Z,96.73
2018-12-05T09:26:59.617Z,97.50
2018-12-05T09:27:59.601Z,96.92
2018-12-05T09:28:59.588Z,97.31
2018-12-05T09:29:59.578Z,97.50
2018-12-05T09:30:59.557Z,97.50
2018-12-05T09:31:59.541Z,96.73
2018-12-05T09:32:59.527Z,96.73
2018-12-05T09:33:59.505Z,96.83
2018-12-05T09:34:59.490Z,96.55
2018-12-05T09:35:59.479Z,96.83
2018-12-05T09:36:59.457Z,96.92
2018-12-05T09:37:59.440Z,96.92
2018-12-05T09:38:59.427Z,96.64
2018-12-05T09:39:59.416Z,97.21
2018-12-05T09:40:59.397Z,96.64
2018-12-05T09:41:59.383Z,96.64
2018-12-05T09:42:59.362Z,96.83
2018-12-05T09:43:59.354Z,96.92
2018-12-05T09:44:59.329Z,96.64
2018-12-05T09:45:59.309Z,97.02
2018-12-05T09:46:59.299Z,95.69
2018-12-05T09:47:59.283Z,96.17
2018-12-05T09:48:59.268Z,95.69
2018-12-05T09:49:59.254Z,95.98
2018-12-05T09:50:59.236Z,95.41
2018-12-05T09:51:59.212Z,95.03
2018-12-05T09:52:59.203Z,94.65
2018-12-05T09:53:59.192Z,93.80
2018-12-05T09:54:59.171Z,94.18
2018-12-05T09:55:59.158Z,93.61
2018-12-05T09:56:59.143Z,93.80
2018-12-05T09:57:59.121Z,93.32
2018-12-05T09:58:59.115Z,93.89
2018-12-05T09:59:59.091Z,94.03
2018-12-05T10:00:59.075Z,93.80
2018-12-05T10:01:59.064Z,93.99
2018-12-05T10:02:59.046Z,94.46
2018-12-05T10:03:59.029Z,94.56
2018-12-05T10:04:59.013Z,93.99
2018-12-05T10:05:58.996Z,94.08
2018-12-05T10:06:58.979Z,93.61
2018-12-05T10:07:58.972Z,93.27
2018-12-05T10:08:58.953Z,92.57
2018-12-05T10:09:58.941Z,92.18
2018-12-05T10:10:58.920Z,92.76
2018-12-05T10:11:58.903Z,92.66
2018-12-05T10:12:58.882Z,92.47
2018-12-05T10:13:58.872Z,92.57
2018-12-05T10:14:58.850Z,91.80
2018-12-05T10:15:58.840Z,90.95
2018-12-05T10:16:58.824Z,92.47
2018-12-05T10:17:58.806Z,93.04
2018-12-05T10:18:58.793Z,92.85
2018-12-05T10:19:58.773Z,92.85
2018-12-05T10:20:58.758Z,93.41
2018-12-05T10:21:58.747Z,93.51
2018-12-05T10:22:58.727Z,94.18
2018-12-05T10:23:58.709Z,94.08
2018-12-05T10:24:58.693Z,93.70
2018-12-05T10:25:58.686Z,93.89
2018-12-05T10:26:58.665Z,94.46
2018-12-05T10:27:58.654Z,93.99
2018-12-05T10:28:58.635Z,93.99
2018-12-05T10:29:58.618Z,94.08
2018-12-05T10:30:58.604Z,94.08
2018-12-05T10:31:58.585Z,93.89
2018-12-05T10:32:58.570Z,93.84
2018-12-05T10:33:58.551Z,94.46
2018-12-05T10:34:58.543Z,94.56
2018-12-05T10:35:58.526Z,95.12
2018-12-05T10:36:58.507Z,94.98
2018-12-05T10:37:58.489Z,94.42
2018-12-05T10:38:58.474Z,94.98
2018-12-05T10:39:58.458Z,94.70
2018-12-05T10:40:58.441Z,93.84
2018-12-05T10:41:58.431Z,94.03
2018-12-05T10:42:58.408Z,93.56
2018-12-05T10:43:58.399Z,92.90
2018-12-05T10:44:58.380Z,93.37
2018-12-05T10:45:58.364Z,93.65
2018-12-05T10:46:58.350Z,93.94
2018-12-05T10:47:58.331Z,94.42
2018-12-05T10:48:58.323Z,94.60
2018-12-05T10:49:58.296Z,94.79
2018-12-05T10:50:58.283Z,95.07
2018-12-05T10:51:58.263Z,94.89
2018-12-05T10:52:58.251Z,95.07
2018-12-05T10:53:58.235Z,94.79
2018-12-05T10:54:58.212Z,94.89
2018-12-05T10:55:58.201Z,95.74
2018-12-05T10:56:58.188Z,95.65
2018-12-05T10:57:58.171Z,96.03
2018-12-05T10:58:58.156Z,97.17
2018-12-05T10:59:58.146Z,96.88
2018-12-05T11:00:58.118Z,96.97
2018-12-05T11:01:58.110Z,96.78
2018-12-05T11:02:58.094Z,96.78
2018-12-05T11:03:58.076Z,97.07
2018-12-05T11:04:58.061Z,96.31
2018-12-05T11:05:58.045Z,95.46
2018-12-05T11:06:58.032Z,95.55
2018-12-05T11:07:58.013Z,95.74
2018-12-05T11:08:57.999Z,94.74
2018-12-05T11:09:57.981Z,94.27
2018-12-05T11:10:57.962Z,92.56
2018-12-05T11:11:57.950Z,92.28
2018-12-05T11:12:57.934Z,92.28
2018-12-05T11:13:57.918Z,92.56
2018-12-05T11:14:57.903Z,92.18
2018-12-05T11:15:57.890Z,92.09
2018-12-05T11:16:57.872Z,91.42
2018-12-05T11:17:57.911Z,91.33
2018-12-05T11:18:57.845Z,91.42
2018-12-05T11:19:57.826Z,91.71
2018-12-05T11:20:57.805Z,92.75
2018-12-05T11:21:57.790Z,93.04
2018-12-05T11:22:57.773Z,94.08
2018-12-05T11:23:57.773Z,94.37
2018-12-05T11:24:57.759Z,95.03
2018-12-05T11:25:57.732Z,94.93
2018-12-05T11:26:57.714Z,94.93
2018-12-05T11:27:57.703Z,95.41
2018-12-05T11:28:57.679Z,95.60
2018-12-05T11:29:57.668Z,94.84
2018-12-05T11:30:57.649Z,94.46
2018-12-05T11:31:57.646Z,93.56
2018-12-05T11:32:57.623Z,92.56
2018-12-05T11:33:57.605Z,92.94
2018-12-05T11:34:57.591Z,92.42
2018-12-05T11:35:57.572Z,92.28
2018-12-05T11:36:57.562Z,92.51
2018-12-05T11:37:57.537Z,92.28
2018-12-05T11:38:57.542Z,91.61
2018-12-05T11:39:57.516Z,92.32
2018-12-05T11:40:57.500Z,92.56
2018-12-05T11:41:57.491Z,93.08
2018-12-05T11:42:57.467Z,93.56
2018-12-05T11:43:57.454Z,93.37
2018-12-05T11:44:57.439Z,93.27
2018-12-05T11:45:57.458Z,92.61
2018-12-05T11:46:57.406Z,92.80
2018-12-05T11:47:57.453Z,93.18
2018-12-05T11:48:57.377Z,93.75
2018-12-05T11:49:57.361Z,93.94
2018-12-05T11:50:57.349Z,94.13
2018-12-05T11:51:57.324Z,93.84
2018-12-05T11:52:57.316Z,94.42
2018-12-05T11:53:57.303Z,93.94
2018-12-05T11:54:57.387Z,93.56
2018-12-05T11:55:57.271Z,93.65
2018-12-05T11:56:57.256Z,93.65
2018-12-05T11:57:57.240Z,93.56
2018-12-05T11:58:57.227Z,93.27
2018-12-05T11:59:57.225Z,93.27
2018-12-05T12:00:57.195Z,93.56
2018-12-05T12:01:57.177Z,93.37
2018-12-05T12:02:57.166Z,93.56
2018-12-05T12:03:57.142Z,93.56
2018-12-05T12:04:57.132Z,93.27
2018-12-05T12:05:57.116Z,93.08
2018-12-05T12:06:57.108Z,93.56
2018-12-05T12:07:57.088Z,93.46
2018-12-05T12:08:57.131Z,93.94
2018-12-05T12:09:57.060Z,93.94
2018-12-05T12:10:57.045Z,94.79
2018-12-05T12:11:57.035Z,94.89
2018-12-05T12:12:57.013Z,94.79
2018-12-05T12:13:57.005Z,94.32
2018-12-05T12:14:56.981Z,94.13
2018-12-05T12:15:56.969Z,94.51
2018-12-05T12:16:56.951Z,94.60
2018-12-05T12:17:56.938Z,94.42
2018-12-05T12:18:56.925Z,94.60
2018-12-05T12:19:56.912Z,94.42
2018-12-05T12:20:56.896Z,94.03
2018-12-05T12:21:56.883Z,94.03
2018-12-05T12:22:56.952Z,93.84
2018-12-05T12:23:56.847Z,91.56
2018-12-05T12:24:56.839Z,90.90
2018-12-05T12:25:56.835Z,90.90
2018-12-05T12:26:56.803Z,91.66
2018-12-05T12:27:56.801Z,91.38
2018-12-05T12:28:56.775Z,91.56
2018-12-05T12:29:56.766Z,91.66
2018-12-05T12:30:56.739Z,91.56
2018-12-05T12:31:56.733Z,91.66
2018-12-05T12:32:56.719Z,91.23
2018-12-05T12:33:56.706Z,91.42
2018-12-05T12:34:56.687Z,91.71
2018-12-05T12:35:56.675Z,92.46
2018-12-05T12:36:56.656Z,92.85
2018-12-05T12:37:56.645Z,92.46
2018-12-05T12:38:56.624Z,92.18
2018-12-05T12:39:56.608Z,91.99
2018-12-05T12:40:56.600Z,91.99
2018-12-05T12:41:56.581Z,91.61
2018-12-05T12:42:56.566Z,91.71
2018-12-05T12:43:56.549Z,91.99
2018-12-05T12:44:56.537Z,92.85
2018-12-05T12:45:56.526Z,93.41
2018-12-05T12:46:56.504Z,93.13
2018-12-05T12:47:56.490Z,93.04
2018-12-05T12:48:56.577Z,93.51
2018-12-05T12:49:56.473Z,93.79
2018-12-05T12:50:56.448Z,93.79
2018-12-05T12:51:56.438Z,94.18